Whitneyville, Connecticut
Current Conditions -  °F | °C
As of 1:53 PM on Sunday 21 Dec 2014 (Local Time) from KHVN Reporting Station
Light Snow Light Snow  
Wind Chill: 31°   Ceiling: 800
Heat Index: 38°   Visibility: 3mi
Dew Point: 32°   Wind: 10mph
Humidity: 79%   Direction: 360°N
Pressure: 30.27"   Gusts: NA
Location:  41.3475°N, 72.9054°W
Report Text: KHVN 211853Z 36009KT 3SM -SN BR BKN008 OVC035 03/00 A3027 RMK AO2 SNE33B50 SLP249 P0001 T00330000
Loading
Personal Weather Stations






























Interactive Weather Map New forecast layout! Learn more

10-Day Weather Forecast

Advertisements
Track Severe Weather on mobile